createdAt,value
2023-03-10T00:02:08.803Z,77.30
2023-03-10T00:04:38.575Z,77.60
2023-03-10T00:07:08.345Z,77.60
2023-03-10T00:09:38.034Z,77.40
2023-03-10T00:12:08.139Z,77.50
2023-03-10T00:14:37.884Z,77.90
2023-03-10T00:17:08.170Z,77.80
2023-03-10T00:19:38.102Z,77.70
2023-03-10T00:22:08.224Z,77.40
2023-03-10T00:24:38.001Z,77.20
2023-03-10T00:27:07.888Z,77.00
2023-03-10T00:29:37.568Z,76.90
2023-03-10T00:32:07.800Z,77.00
2023-03-10T00:34:38.008Z,77.00
2023-03-10T00:37:07.760Z,77.20
2023-03-10T00:39:37.449Z,77.30
2023-03-10T00:42:07.150Z,77.20
2023-03-10T00:44:36.852Z,77.30
2023-03-10T00:47:06.517Z,77.20
2023-03-10T00:49:36.187Z,77.10
2023-03-10T00:52:06.067Z,77.10
2023-03-10T00:54:35.727Z,77.10
2023-03-10T00:57:06.200Z,77.00
2023-03-10T00:59:48.010Z,77.00
2023-03-10T01:02:21.577Z,77.20
2023-03-10T01:04:51.294Z,76.70
2023-03-10T01:07:20.933Z,76.70
2023-03-10T01:09:50.611Z,76.60
2023-03-10T01:12:20.307Z,76.50
2023-03-10T01:14:49.942Z,76.30
2023-03-10T01:17:19.614Z,76.20
2023-03-10T01:19:49.326Z,76.00
2023-03-10T01:22:18.936Z,75.80
2023-03-10T01:24:48.565Z,75.50
2023-03-10T01:27:18.345Z,75.40
2023-03-10T01:29:47.991Z,74.90
2023-03-10T01:32:20.300Z,74.50
2023-03-10T01:34:50.213Z,73.00
2023-03-10T01:37:20.545Z,71.80
2023-03-10T01:39:50.267Z,70.80
2023-03-10T01:42:19.853Z,71.00
2023-03-10T01:45:11.238Z,70.80
2023-03-10T01:47:40.847Z,69.80
2023-03-10T01:50:15.721Z,69.40
2023-03-10T01:52:48.670Z,69.30
2023-03-10T01:55:23.675Z,69.30
2023-03-10T01:57:56.531Z,69.20
2023-03-10T02:00:29.724Z,68.50
2023-03-10T02:03:11.681Z,68.60
2023-03-10T02:05:47.830Z,68.30
2023-03-10T02:08:18.867Z,68.10
2023-03-10T02:10:50.265Z,67.60
2023-03-10T02:13:20.134Z,66.90
2023-03-10T02:15:50.009Z,67.10
2023-03-10T02:18:22.157Z,66.80
2023-03-10T02:21:25.678Z,66.40
2023-03-10T02:24:14.494Z,66.50
2023-03-10T02:27:05.022Z,66.80
2023-03-10T02:29:58.009Z,66.60
2023-03-10T02:32:31.417Z,66.20
2023-03-10T02:35:01.995Z,65.10
2023-03-10T02:37:35.936Z,65.40
2023-03-10T02:40:07.174Z,65.50
2023-03-10T02:42:38.521Z,65.20
2023-03-10T02:45:08.916Z,65.20
2023-03-10T02:47:38.644Z,65.30
2023-03-10T02:50:10.182Z,64.70
2023-03-10T02:53:08.295Z,63.80
2023-03-10T02:55:37.895Z,63.90
2023-03-10T02:58:07.737Z,64.60
2023-03-10T03:00:40.584Z,63.90
2023-03-10T03:03:11.693Z,64.00
2023-03-10T03:05:41.848Z,63.30
2023-03-10T03:08:12.150Z,63.50
2023-03-10T03:10:42.375Z,63.50
2023-03-10T03:13:12.403Z,63.30
2023-03-10T03:15:42.043Z,63.30
2023-03-10T03:18:11.798Z,62.90
2023-03-10T03:20:42.962Z,62.70
2023-03-10T03:23:13.038Z,62.00
2023-03-10T03:25:44.319Z,62.40
2023-03-10T03:28:15.183Z,62.00
2023-03-10T03:30:48.366Z,61.20
2023-03-10T03:33:18.389Z,60.90
2023-03-10T03:35:48.906Z,60.90
2023-03-10T03:38:18.639Z,60.90
2023-03-10T03:40:48.508Z,59.60
2023-03-10T03:43:18.193Z,59.80
2023-03-10T03:45:47.857Z,59.90
2023-03-10T03:48:17.511Z,60.00
2023-03-10T03:50:47.209Z,59.60
2023-03-10T03:53:17.085Z,59.70
2023-03-10T03:55:46.788Z,59.90
2023-03-10T03:58:16.456Z,60.10
2023-03-10T04:00:46.298Z,59.90
2023-03-10T04:03:15.961Z,59.40
2023-03-10T04:05:47.229Z,59.30
2023-03-10T04:08:17.284Z,59.20
2023-03-10T04:10:56.554Z,59.30
2023-03-10T04:13:26.248Z,59.30
2023-03-10T04:16:02.377Z,58.40
2023-03-10T04:18:31.990Z,58.50
2023-03-10T04:21:01.695Z,58.30
2023-03-10T04:23:31.348Z,58.60
2023-03-10T04:26:00.968Z,58.60
2023-03-10T04:28:30.545Z,58.60
2023-03-10T04:31:00.236Z,58.40
2023-03-10T04:33:29.905Z,58.50
2023-03-10T04:36:04.690Z,58.40
2023-03-10T04:38:34.789Z,58.40
2023-03-10T04:41:04.904Z,58.10
2023-03-10T04:43:34.936Z,57.90
2023-03-10T04:46:04.582Z,57.80
2023-03-10T04:48:34.585Z,58.00
2023-03-10T04:51:07.226Z,58.00
2023-03-10T04:53:38.313Z,56.60
2023-03-10T04:56:10.154Z,57.00
2023-03-10T04:58:39.738Z,57.20
2023-03-10T05:01:14.167Z,57.20
2023-03-10T05:03:43.996Z,57.30
2023-03-10T05:06:17.031Z,57.00
2023-03-10T05:08:46.833Z,56.80
2023-03-10T05:11:16.692Z,56.40
2023-03-10T05:13:46.630Z,56.30
2023-03-10T05:16:24.116Z,56.20
2023-03-10T05:18:53.875Z,56.30
2023-03-10T05:21:23.975Z,56.10
2023-03-10T05:23:53.685Z,56.00
2023-03-10T05:26:23.474Z,55.20
2023-03-10T05:28:53.110Z,54.80
2023-03-10T05:31:27.988Z,54.30
2023-03-10T05:33:58.269Z,54.40
2023-03-10T05:36:28.625Z,54.60
2023-03-10T05:38:58.200Z,54.90
2023-03-10T05:41:27.929Z,54.00
2023-03-10T05:43:58.250Z,54.10
2023-03-10T05:46:28.155Z,54.30
2023-03-10T05:48:58.662Z,54.40
2023-03-10T05:51:28.237Z,54.20
2023-03-10T05:53:57.863Z,54.60
2023-03-10T05:56:27.811Z,54.30
2023-03-10T05:58:57.457Z,54.00
2023-03-10T06:01:27.094Z,54.40
2023-03-10T06:03:56.799Z,54.40
2023-03-10T06:06:26.472Z,54.30
2023-03-10T06:08:56.183Z,53.80
2023-03-10T06:11:26.095Z,53.70
2023-03-10T06:13:55.998Z,53.20
2023-03-10T06:16:25.588Z,52.80
2023-03-10T06:18:57.332Z,52.40
2023-03-10T06:21:27.803Z,52.70
2023-03-10T06:23:57.566Z,52.70
2023-03-10T06:26:27.368Z,52.50
2023-03-10T06:28:56.995Z,52.40
2023-03-10T06:31:27.014Z,52.70
2023-03-10T06:33:56.703Z,52.00
2023-03-10T06:36:28.402Z,52.20
2023-03-10T06:38:58.644Z,52.20
2023-03-10T06:41:29.725Z,52.20
2023-03-10T06:43:59.803Z,52.50
2023-03-10T06:46:30.593Z,52.50
2023-03-10T06:49:00.228Z,52.30
2023-03-10T06:51:29.977Z,52.30
2023-03-10T06:53:59.769Z,51.90
2023-03-10T06:56:29.417Z,51.90
2023-03-10T06:58:59.280Z,51.80
2023-03-10T07:01:32.055Z,50.90
2023-03-10T07:04:03.080Z,50.50
2023-03-10T07:06:33.017Z,51.00
2023-03-10T07:09:02.800Z,51.40
2023-03-10T07:11:32.669Z,51.40
2023-03-10T07:14:02.421Z,51.40
2023-03-10T07:16:32.169Z,51.50
2023-03-10T07:19:01.915Z,51.60
2023-03-10T07:21:31.581Z,51.60
2023-03-10T07:24:01.603Z,51.60
2023-03-10T07:26:31.585Z,51.10
2023-03-10T07:29:01.400Z,51.10
2023-03-10T07:31:31.962Z,50.10
2023-03-10T07:34:03.654Z,50.30
2023-03-10T07:36:33.401Z,50.60
2023-03-10T07:39:03.462Z,50.70
2023-03-10T07:41:33.202Z,50.80
2023-03-10T07:44:02.840Z,50.80
2023-03-10T07:46:32.613Z,50.80
2023-03-10T07:49:05.909Z,50.80
2023-03-10T07:51:35.834Z,50.80
2023-03-10T07:54:05.661Z,50.90
2023-03-10T07:56:35.378Z,50.90
2023-03-10T07:59:05.103Z,50.80
2023-03-10T08:01:34.744Z,50.90
2023-03-10T08:04:04.545Z,51.00
2023-03-10T08:06:35.674Z,50.90
2023-03-10T08:09:05.469Z,50.80
2023-03-10T08:11:35.516Z,50.70
2023-03-10T08:14:05.991Z,50.70
2023-03-10T08:16:35.720Z,50.60
2023-03-10T08:19:05.752Z,50.70
2023-03-10T08:21:35.458Z,50.80
2023-03-10T08:24:05.272Z,50.70
2023-03-10T08:26:35.479Z,50.70
2023-03-10T08:29:05.512Z,50.70
2023-03-10T08:31:35.318Z,50.70
2023-03-10T08:34:05.057Z,50.60
2023-03-10T08:36:35.286Z,50.60
2023-03-10T08:39:07.475Z,50.50
2023-03-10T08:41:50.604Z,49.90
2023-03-10T08:44:21.321Z,48.90
2023-03-10T08:46:52.386Z,49.10
2023-03-10T08:49:23.703Z,49.20
2023-03-10T08:51:53.519Z,49.10
2023-03-10T08:54:24.437Z,49.40
2023-03-10T08:56:54.413Z,49.70
2023-03-10T08:59:24.286Z,49.80
2023-03-10T09:01:54.106Z,50.00
2023-03-10T09:04:23.804Z,50.10
2023-03-10T09:06:53.514Z,50.10
2023-03-10T09:09:23.169Z,50.10
2023-03-10T09:11:52.776Z,50.00
2023-03-10T09:14:22.583Z,50.00
2023-03-10T09:16:52.294Z,50.00
2023-03-10T09:19:22.113Z,50.10
2023-03-10T09:21:51.929Z,50.00
2023-03-10T09:24:21.670Z,50.20
2023-03-10T09:26:51.311Z,50.20
2023-03-10T09:29:27.085Z,50.30
2023-03-10T09:32:08.533Z,50.30
2023-03-10T09:34:38.360Z,50.00
2023-03-10T09:37:08.710Z,50.10
2023-03-10T09:39:38.982Z,50.30
2023-03-10T09:42:47.869Z,50.30
2023-03-10T09:45:37.552Z,50.30
2023-03-10T09:48:34.703Z,50.40
2023-03-10T09:51:16.513Z,50.50
2023-03-10T09:54:11.333Z,50.60
2023-03-10T09:56:41.317Z,50.60
2023-03-10T09:59:19.631Z,50.70
2023-03-10T10:01:52.042Z,50.70
2023-03-10T10:04:41.098Z,50.80
2023-03-10T10:07:24.020Z,50.80
2023-03-10T10:10:26.396Z,50.80
2023-03-10T10:12:56.550Z,50.80
2023-03-10T10:15:28.925Z,50.90
2023-03-10T10:18:24.112Z,50.90
2023-03-10T10:21:18.036Z,50.90
2023-03-10T10:23:54.651Z,51.00
2023-03-10T10:26:28.036Z,51.10
2023-03-10T10:29:00.542Z,51.20
2023-03-10T10:31:35.831Z,51.20
2023-03-10T10:34:08.828Z,51.30
2023-03-10T10:36:50.235Z,51.20
2023-03-10T10:39:35.150Z,51.30
2023-03-10T10:42:26.441Z,51.40
2023-03-10T10:45:03.846Z,52.00
2023-03-10T10:47:51.959Z,52.10
2023-03-10T10:50:31.436Z,51.60
2023-03-10T10:53:23.400Z,51.70
2023-03-10T10:56:07.423Z,51.90
2023-03-10T10:58:39.500Z,52.00
2023-03-10T11:01:14.185Z,52.20
2023-03-10T11:03:47.910Z,52.30
2023-03-10T11:06:33.983Z,52.30
2023-03-10T11:09:25.164Z,52.40
2023-03-10T11:12:33.844Z,52.70
2023-03-10T11:15:34.983Z,53.30
2023-03-10T11:18:19.426Z,52.80
2023-03-10T11:21:13.194Z,52.90
2023-03-10T11:24:22.185Z,52.90
2023-03-10T11:27:20.536Z,52.90
2023-03-10T11:30:01.175Z,53.10
2023-03-10T11:32:58.631Z,53.20
2023-03-10T11:35:49.624Z,53.30
2023-03-10T11:38:36.312Z,53.50
2023-03-10T11:41:29.333Z,53.60
2023-03-10T11:44:23.052Z,53.70
2023-03-10T11:47:26.716Z,53.80
2023-03-10T11:50:05.935Z,53.90
2023-03-10T11:52:36.475Z,54.00
2023-03-10T11:55:19.792Z,54.20
2023-03-10T11:57:54.665Z,54.20
2023-03-10T12:00:34.629Z,54.80
2023-03-10T12:03:36.746Z,54.40
2023-03-10T12:06:16.801Z,54.70
2023-03-10T12:08:47.152Z,54.80
2023-03-10T12:11:21.501Z,54.80
2023-03-10T12:13:55.513Z,54.80
2023-03-10T12:16:29.197Z,54.90
2023-03-10T12:18:59.753Z,55.00
2023-03-10T12:21:32.628Z,55.20
2023-03-10T12:24:06.775Z,55.20
2023-03-10T12:27:00.230Z,55.30
2023-03-10T12:29:36.910Z,55.50
2023-03-10T12:32:07.333Z,55.50
2023-03-10T12:34:36.986Z,55.70
2023-03-10T12:37:10.159Z,55.80
2023-03-10T12:39:44.881Z,56.00
2023-03-10T12:42:37.862Z,56.30
2023-03-10T12:45:31.052Z,56.90
2023-03-10T12:48:18.561Z,57.20
2023-03-10T12:51:06.809Z,57.40
2023-03-10T12:53:50.256Z,57.70
2023-03-10T12:56:41.092Z,57.80
2023-03-10T12:59:34.901Z,58.20
2023-03-10T13:02:06.149Z,58.20
2023-03-10T13:04:36.858Z,58.40
2023-03-10T13:07:06.770Z,58.50
2023-03-10T13:09:44.693Z,58.50
2023-03-10T13:12:19.355Z,58.70
2023-03-10T13:14:53.298Z,59.70
2023-03-10T13:17:27.225Z,58.90
2023-03-10T13:20:10.344Z,59.00
2023-03-10T13:22:40.149Z,59.40
2023-03-10T13:25:16.469Z,59.60
2023-03-10T13:27:46.152Z,59.80
2023-03-10T13:30:28.192Z,59.90
2023-03-10T13:33:04.216Z,59.90
2023-03-10T13:35:38.645Z,60.00
2023-03-10T13:38:22.998Z,60.30
2023-03-10T13:41:03.835Z,60.50
2023-03-10T13:43:50.319Z,60.70
2023-03-10T13:46:31.002Z,60.70
2023-03-10T13:49:08.003Z,60.70
2023-03-10T13:51:40.028Z,60.50
2023-03-10T13:54:30.726Z,60.70
2023-03-10T13:57:31.597Z,60.70
2023-03-10T14:00:03.571Z,60.90
2023-03-10T14:02:37.586Z,60.90
2023-03-10T14:05:09.024Z,61.00
2023-03-10T14:07:40.448Z,61.10
2023-03-10T14:10:17.271Z,61.30
2023-03-10T14:12:55.801Z,61.30
2023-03-10T14:15:32.105Z,61.40
2023-03-10T14:18:21.655Z,61.40
2023-03-10T14:20:51.380Z,61.70
2023-03-10T14:23:29.710Z,61.80
2023-03-10T14:26:00.388Z,61.80
2023-03-10T14:28:35.033Z,61.80
2023-03-10T14:31:06.326Z,62.10
2023-03-10T14:33:36.198Z,62.30
2023-03-10T14:36:07.710Z,62.30
2023-03-10T14:38:37.521Z,62.30
2023-03-10T14:41:07.974Z,62.60
2023-03-10T14:43:37.653Z,62.90
2023-03-10T14:46:07.888Z,63.00
2023-03-10T14:48:42.611Z,63.20
2023-03-10T14:51:32.573Z,63.30
2023-03-10T14:54:02.515Z,63.40
2023-03-10T14:56:33.848Z,63.50
2023-03-10T14:59:03.974Z,63.80
2023-03-10T15:01:33.821Z,63.90
2023-03-10T15:04:03.442Z,63.90
2023-03-10T15:06:33.076Z,64.00
2023-03-10T15:09:02.864Z,64.20
2023-03-10T15:11:37.334Z,64.30
2023-03-10T15:14:15.829Z,64.40
2023-03-10T15:16:45.795Z,64.50
2023-03-10T15:19:26.854Z,64.80
2023-03-10T15:21:56.839Z,64.70
2023-03-10T15:24:26.493Z,65.00
2023-03-10T15:26:56.150Z,65.30
2023-03-10T15:29:25.758Z,65.60
2023-03-10T15:31:55.423Z,65.80
2023-03-10T15:34:25.010Z,66.00
2023-03-10T15:36:54.615Z,66.40
2023-03-10T15:39:31.460Z,66.40
2023-03-10T15:42:01.582Z,66.40
2023-03-10T15:44:31.313Z,66.60
2023-03-10T15:47:01.378Z,66.70
2023-03-10T15:49:31.597Z,66.40
2023-03-10T15:52:01.404Z,66.50
2023-03-10T15:54:31.102Z,66.30
2023-03-10T15:57:00.849Z,66.40
2023-03-10T15:59:31.089Z,66.30
2023-03-10T16:02:00.839Z,66.70
2023-03-10T16:04:32.413Z,66.90
2023-03-10T16:07:07.452Z,67.00
2023-03-10T16:09:37.194Z,67.30
2023-03-10T16:12:07.238Z,67.50
2023-03-10T16:14:36.908Z,67.50
2023-03-10T16:17:06.682Z,67.50
2023-03-10T16:19:36.363Z,67.60
2023-03-10T16:22:06.021Z,67.50
2023-03-10T16:24:36.144Z,67.90
2023-03-10T16:27:06.076Z,67.80
2023-03-10T16:29:35.884Z,67.70
2023-03-10T16:32:05.629Z,67.40
2023-03-10T16:34:35.347Z,67.40
2023-03-10T16:37:05.104Z,67.50
2023-03-10T16:39:34.839Z,67.60
2023-03-10T16:42:05.940Z,67.70
2023-03-10T16:44:35.656Z,67.80
2023-03-10T16:47:05.936Z,67.90
2023-03-10T16:49:38.104Z,67.90
2023-03-10T16:52:14.171Z,68.00
2023-03-10T16:54:43.814Z,68.40
2023-03-10T16:57:13.956Z,67.50
2023-03-10T16:59:46.259Z,67.70
2023-03-10T17:02:19.205Z,68.00
2023-03-10T17:04:49.002Z,68.00
2023-03-10T17:07:18.686Z,68.00
2023-03-10T17:09:48.294Z,68.00
2023-03-10T17:12:18.007Z,67.90
2023-03-10T17:14:47.669Z,68.00
2023-03-10T17:17:17.254Z,68.20
2023-03-10T17:19:46.916Z,68.70
2023-03-10T17:22:16.478Z,68.70
2023-03-10T17:24:46.355Z,68.40
2023-03-10T17:27:16.068Z,68.90
2023-03-10T17:29:45.709Z,69.10
2023-03-10T17:32:15.746Z,69.20
2023-03-10T17:34:45.842Z,69.60
2023-03-10T17:37:15.542Z,69.80
2023-03-10T17:39:45.259Z,70.10
2023-03-10T17:42:14.929Z,70.00
2023-03-10T17:44:44.692Z,70.30
2023-03-10T17:47:14.584Z,70.60
2023-03-10T17:49:44.886Z,70.60
2023-03-10T17:52:14.525Z,70.60
2023-03-10T17:54:44.400Z,70.70
2023-03-10T17:57:14.072Z,70.80
2023-03-10T17:59:43.777Z,70.90
2023-03-10T18:02:14.949Z,71.00
2023-03-10T18:04:46.919Z,71.10
2023-03-10T18:07:16.538Z,71.20
2023-03-10T18:09:46.241Z,71.10
2023-03-10T18:12:15.840Z,71.00
2023-03-10T18:14:45.364Z,71.00
2023-03-10T18:17:15.056Z,71.10
2023-03-10T18:19:44.738Z,70.80
2023-03-10T18:22:15.373Z,70.90
2023-03-10T18:24:45.016Z,71.20
2023-03-10T18:27:14.851Z,71.70
2023-03-10T18:29:44.441Z,71.80
2023-03-10T18:32:14.188Z,72.20
2023-03-10T18:34:43.804Z,72.70
2023-03-10T18:37:13.663Z,72.60
2023-03-10T18:39:43.378Z,72.50
2023-03-10T18:42:14.301Z,72.50
2023-03-10T18:44:48.909Z,72.60
2023-03-10T18:47:18.788Z,72.50
2023-03-10T18:49:49.387Z,72.70
2023-03-10T18:52:19.150Z,72.50
2023-03-10T18:54:50.151Z,72.50
2023-03-10T18:57:19.733Z,72.50
2023-03-10T18:59:49.382Z,72.50
2023-03-10T19:02:19.007Z,72.60
2023-03-10T19:04:49.644Z,72.40
2023-03-10T19:07:22.145Z,72.60
2023-03-10T19:09:56.347Z,72.70
2023-03-10T19:12:26.600Z,72.60
2023-03-10T19:15:09.362Z,72.50
2023-03-10T19:17:41.283Z,72.50
2023-03-10T19:20:13.897Z,72.50
2023-03-10T19:22:44.122Z,72.50
2023-03-10T19:25:14.720Z,72.60
2023-03-10T19:27:44.352Z,72.70
2023-03-10T19:30:18.021Z,73.20
2023-03-10T19:32:47.982Z,73.20
2023-03-10T19:35:22.174Z,73.30
2023-03-10T19:37:51.949Z,73.50
2023-03-10T19:40:23.280Z,73.80
2023-03-10T19:42:52.968Z,73.50
2023-03-10T19:45:22.632Z,73.60
2023-03-10T19:47:54.015Z,73.80
2023-03-10T19:50:24.062Z,73.70
2023-03-10T19:52:53.817Z,73.80
2023-03-10T19:55:25.660Z,74.00
2023-03-10T19:57:57.736Z,74.00
2023-03-10T20:00:32.795Z,74.10
2023-03-10T20:03:02.430Z,74.50
2023-03-10T20:05:31.982Z,74.70
2023-03-10T20:08:02.762Z,74.60
2023-03-10T20:10:32.402Z,75.50
2023-03-10T20:13:02.040Z,75.00
2023-03-10T20:15:31.907Z,75.60
2023-03-10T20:18:02.696Z,74.80
2023-03-10T20:20:33.346Z,75.50
2023-03-10T20:23:02.985Z,74.80
2023-03-10T20:25:32.729Z,75.20
2023-03-10T20:28:02.473Z,75.40
2023-03-10T20:30:32.818Z,75.40
2023-03-10T20:33:03.158Z,75.10
2023-03-10T20:35:34.839Z,75.40
2023-03-10T20:38:04.562Z,75.40
2023-03-10T20:40:34.378Z,75.60
2023-03-10T20:43:04.050Z,75.50
2023-03-10T20:45:33.948Z,75.40
2023-03-10T20:48:04.039Z,75.50
2023-03-10T20:50:35.004Z,75.40
2023-03-10T20:53:05.263Z,75.30
2023-03-10T20:55:35.075Z,75.30
2023-03-10T20:58:04.772Z,75.40
2023-03-10T21:00:34.585Z,75.50
2023-03-10T21:03:05.982Z,75.50
2023-03-10T21:05:35.721Z,75.50
2023-03-10T21:08:05.477Z,75.70
2023-03-10T21:10:35.138Z,75.90
2023-03-10T21:13:04.897Z,75.90
2023-03-10T21:15:34.829Z,75.90
2023-03-10T21:18:04.447Z,75.90
2023-03-10T21:20:34.428Z,75.70
2023-03-10T21:23:04.190Z,75.60
2023-03-10T21:25:33.950Z,75.60
2023-03-10T21:28:03.686Z,75.70
2023-03-10T21:30:35.766Z,75.60
2023-03-10T21:33:07.209Z,75.50
2023-03-10T21:35:40.159Z,75.70
2023-03-10T21:38:09.828Z,75.80
2023-03-10T21:40:39.702Z,75.90
2023-03-10T21:43:09.428Z,75.80
2023-03-10T21:45:40.136Z,75.90
2023-03-10T21:48:10.180Z,75.80
2023-03-10T21:50:41.061Z,75.90
2023-03-10T21:53:11.013Z,75.90
2023-03-10T21:55:40.766Z,75.90
2023-03-10T21:58:10.463Z,75.70
2023-03-10T22:00:40.868Z,76.00
2023-03-10T22:03:10.483Z,76.00
2023-03-10T22:05:40.156Z,76.00
2023-03-10T22:08:10.015Z,75.90
2023-03-10T22:10:39.673Z,75.90
2023-03-10T22:13:09.262Z,75.80
2023-03-10T22:15:39.128Z,75.80
2023-03-10T22:18:08.987Z,75.70
2023-03-10T22:20:38.768Z,75.80
2023-03-10T22:23:09.555Z,75.90
2023-03-10T22:25:39.348Z,75.90
2023-03-10T22:28:09.025Z,75.80
2023-03-10T22:30:40.325Z,75.90
2023-03-10T22:33:10.111Z,76.00
2023-03-10T22:35:40.632Z,76.10
2023-03-10T22:38:10.353Z,76.40
2023-03-10T22:40:39.990Z,76.90
2023-03-10T22:43:09.643Z,77.00
2023-03-10T22:45:40.198Z,76.90
2023-03-10T22:48:10.026Z,77.10
2023-03-10T22:50:42.701Z,77.00
2023-03-10T22:53:17.428Z,77.00
2023-03-10T22:55:49.551Z,77.00
2023-03-10T22:58:19.364Z,77.10
2023-03-10T23:00:49.180Z,77.20
2023-03-10T23:03:18.986Z,77.30
2023-03-10T23:05:48.778Z,77.30
2023-03-10T23:08:18.623Z,77.40
2023-03-10T23:10:48.341Z,77.60
2023-03-10T23:13:19.192Z,77.60
2023-03-10T23:15:49.340Z,77.50
2023-03-10T23:18:19.174Z,77.70
2023-03-10T23:20:50.798Z,77.80
2023-03-10T23:23:20.525Z,77.90
2023-03-10T23:25:52.671Z,77.80
2023-03-10T23:28:23.386Z,77.80
2023-03-10T23:30:55.869Z,78.10
2023-03-10T23:33:26.576Z,77.80
2023-03-10T23:35:56.799Z,77.80
2023-03-10T23:38:28.114Z,77.80
2023-03-10T23:40:58.120Z,77.70
2023-03-10T23:43:27.770Z,77.70
2023-03-10T23:45:57.375Z,77.70
2023-03-10T23:48:27.058Z,77.50
2023-03-10T23:50:57.649Z,78.00
2023-03-10T23:53:30.148Z,78.10
2023-03-10T23:56:01.716Z,78.20
2023-03-10T23:58:31.368Z,78.20
